Time;durP1;ratioP1;P1;durP2;ratioP2;P2;SDS_P1;SDS_P2;PMS_P1;PMS_P2;Temp;Humidity;BMP_temperature;BMP_pressure;BME280_temperature;BME280_humidity;BME280_pressure;Samples;Min_cycle;Max_cycle;Signal;HPM_P1;HPM_P2
2022/06/22 00:00:39;;;;;;;8.35;2.70;;;;;;;14.74;55.22;100694.13;5122538;28;20464;-66
2022/06/22 00:03:09;;;;;;;3.50;2.22;;;;;;;14.65;55.82;100695.19;5121230;28;20055;-66
2022/06/22 00:05:49;;;;;;;10.60;3.20;;;;;;;14.72;55.28;100690.75;5121333;28;20048;-66
2022/06/22 00:08:20;;;;;;;12.15;3.38;;;;;;;14.71;55.77;100694.47;5121423;28;20044;-67
2022/06/22 00:11:02;;;;;;;13.38;3.08;;;;;;;14.62;56.13;100695.56;5120939;28;20079;-66
2022/06/22 00:13:29;;;;;;;;;;;;;;;14.60;56.28;100698.47;5121696;28;20055;-66
2022/06/22 00:16:05;;;;;;;7.05;2.85;;;;;;;14.60;56.23;100700.31;5121378;28;20003;-66
2022/06/22 00:18:32;;;;;;;6.57;2.78;;;;;;;14.60;56.53;100705.72;5121328;28;20058;-66
2022/06/22 00:21:06;;;;;;;6.30;2.67;;;;;;;14.55;56.63;100700.88;5121583;28;20086;-66
2022/06/22 00:23:40;;;;;;;8.75;3.10;;;;;;;14.55;56.53;100695.47;5121065;28;20493;-66
2022/06/22 00:26:15;;;;;;;6.20;2.90;;;;;;;14.47;56.83;100699.13;5121073;28;20086;-66
2022/06/22 00:28:55;;;;;;;7.53;3.22;;;;;;;14.42;57.23;100714.19;5122048;28;20494;-66
2022/06/22 00:31:56;;;;;;;23.23;3.08;;;;;;;14.38;57.60;100715.59;5121512;28;20474;-66
2022/06/22 00:34:26;;;;;;;10.73;3.63;;;;;;;14.40;57.54;100713.56;5121459;28;20384;-66
2022/06/22 00:37:06;;;;;;;8.90;3.28;;;;;;;14.39;57.58;100706.47;5121494;28;20079;-66
2022/06/22 00:39:38;;;;;;;7.75;3.15;;;;;;;14.35;57.57;100700.59;5120947;28;20067;-68
2022/06/22 00:42:21;;;;;;;8.48;3.40;;;;;;;14.31;57.88;100710.09;5121100;28;20104;-66
2022/06/22 00:44:57;;;;;;;8.43;3.05;;;;;;;14.34;57.84;100703.50;5120761;28;20107;-66
2022/06/22 00:47:44;;;;;;;7.40;2.80;;;;;;;14.33;57.97;100704.53;5121196;28;20503;-66
2022/06/22 00:50:15;;;;;;;7.72;3.03;;;;;;;14.21;58.71;100717.63;5121001;28;20043;-66
2022/06/22 00:52:53;;;;;;;7.18;2.67;;;;;;;14.11;59.16;100714.34;5121420;28;20376;-66
2022/06/22 00:55:42;;;;;;;7.90;3.00;;;;;;;14.08;59.20;100709.31;5121930;28;20472;-66
2022/06/22 00:58:22;;;;;;;7.18;3.17;;;;;;;14.04;59.08;100706.16;5120693;28;20064;-66
2022/06/22 01:01:35;;;;;;;8.63;3.05;;;;;;;14.08;59.08;100704.78;5121034;28;20108;-66
2022/06/22 01:04:15;;;;;;;7.75;3.05;;;;;;;14.04;59.13;100696.19;5078522;28;20070;-67
2022/06/22 01:07:23;;;;;;;10.80;3.53;;;;;;;14.06;58.92;100693.31;5108824;28;20096;-67
2022/06/22 01:10:05;;;;;;;9.52;3.15;;;;;;;14.05;58.57;100689.78;5116324;28;20134;-67
2022/06/22 01:12:46;;;;;;;7.28;2.63;;;;;;;14.09;58.73;100695.66;5116267;28;20373;-67
2022/06/22 01:15:36;;;;;;;8.18;3.10;;;;;;;14.01;58.51;100693.03;5116552;28;20145;-67
2022/06/22 01:18:09;;;;;;;11.57;3.13;;;;;;;13.99;58.16;100689.69;5116214;28;20044;-67
2022/06/22 01:20:53;;;;;;;14.98;3.28;;;;;;;14.03;58.10;100688.28;5115817;28;20050;-67
2022/06/22 01:23:39;;;;;;;10.82;3.67;;;;;;;14.07;57.24;100681.50;5115871;28;20051;-67
2022/06/22 01:26:24;;;;;;;7.22;3.28;;;;;;;14.05;57.21;100689.78;5132400;27;20498;-67
2022/06/22 01:28:58;;;;;;;9.15;3.15;;;;;;;14.04;57.45;100682.69;5136448;27;20143;-67
2022/06/22 01:31:27;;;;;;;11.13;3.60;;;;;;;13.98;57.49;100682.63;5137168;27;20061;-67
2022/06/22 01:33:54;;;;;;;8.40;2.83;;;;;;;13.98;57.48;100688.03;5136081;27;20051;-67
2022/06/22 01:36:32;;;;;;;8.35;2.90;;;;;;;13.88;57.44;100682.03;5136872;27;20431;-67
2022/06/22 01:39:01;;;;;;;9.27;3.58;;;;;;;13.91;57.08;100682.53;5136404;27;20133;-67
2022/06/22 01:41:45;;;;;;;7.65;3.03;;;;;;;13.96;57.27;100680.09;5136236;27;20093;-67
2022/06/22 01:44:24;;;;;;;8.65;3.55;;;;;;;13.89;57.28;100675.63;5136245;27;20057;-67
2022/06/22 01:47:23;;;;;;;8.80;3.10;;;;;;;13.87;56.49;100674.97;5136207;27;20558;-67
2022/06/22 01:50:03;;;;;;;8.13;2.90;;;;;;;13.89;56.37;100664.84;5135040;27;20043;-67
2022/06/22 01:53:07;;;;;;;7.82;3.38;;;;;;;13.85;56.17;100666.22;5136024;27;20078;-67
2022/06/22 01:55:56;;;;;;;10.60;3.65;;;;;;;13.73;56.60;100663.91;5136093;27;20133;-67
2022/06/22 01:58:45;;;;;;;8.75;3.40;;;;;;;13.76;56.30;100668.97;5136393;27;20145;-67
2022/06/22 02:01:27;;;;;;;5.50;3.05;;;;;;;13.76;56.47;100658.19;5136036;27;20050;-67
2022/06/22 02:04:11;;;;;;;10.65;3.30;;;;;;;13.79;56.86;100655.13;5136263;27;20051;-67
2022/06/22 02:10:05;;;;;;;12.23;3.97;;;;;;;13.70;57.65;100664.31;5098888;27;20075;-67
2022/06/22 02:12:37;;;;;;;13.15;4.28;;;;;;;13.69;58.08;100657.22;5136409;27;20126;-67
2022/06/22 02:15:19;;;;;;;12.95;4.32;;;;;;;13.55;58.79;100656.16;5135399;27;20082;-67
2022/06/22 02:17:46;;;;;;;10.23;3.67;;;;;;;13.52;59.05;100664.59;5135739;27;20086;-67
2022/06/22 02:20:18;;;;;;;10.77;3.50;;;;;;;13.56;59.11;100665.06;5135410;27;20053;-67
2022/06/22 02:22:46;;;;;;;11.60;3.67;;;;;;;13.52;59.15;100663.78;5135729;27;20112;-67
2022/06/22 02:25:14;;;;;;;11.77;3.92;;;;;;;13.49;59.70;100656.03;5135225;27;20053;-67
2022/06/22 02:27:41;;;;;;;16.70;4.57;;;;;;;13.47;60.23;100658.09;5135431;27;20043;-67
2022/06/22 02:30:08;;;;;;;13.35;4.20;;;;;;;13.41;60.67;100658.81;5135239;27;20043;-67
2022/06/22 02:32:42;;;;;;;7.82;3.80;;;;;;;13.37;61.01;100665.59;5135320;27;20078;-67
2022/06/22 02:35:11;;;;;;;9.77;4.03;;;;;;;13.26;61.41;100662.28;5134980;27;20133;-67
2022/06/22 02:37:52;;;;;;;10.00;3.85;;;;;;;13.19;61.83;100669.41;5134994;27;20138;-66
2022/06/22 02:40:32;;;;;;;8.52;3.55;;;;;;;13.14;62.36;100668.25;5135469;27;20079;-67
2022/06/22 02:45:44;;;;;;;14.32;4.53;;;;;;;13.14;62.44;100665.56;5135250;27;20182;-66
2022/06/22 02:48:29;;;;;;;8.73;3.90;;;;;;;13.15;62.40;100670.78;5136166;27;20055;-66
2022/06/22 02:51:08;;;;;;;9.18;4.07;;;;;;;13.16;62.51;100671.63;5135736;27;20506;-66
2022/06/22 02:53:37;;;;;;;11.10;4.43;;;;;;;13.18;62.37;100664.19;5135242;27;20138;-66
2022/06/22 02:56:06;;;;;;;12.10;3.63;;;;;;;13.14;62.87;100661.00;5135264;27;20125;-66
2022/06/22 02:58:36;;;;;;;11.90;4.57;;;;;;;13.04;63.03;100663.09;5134990;27;20046;-66
2022/06/22 03:01:13;;;;;;;11.30;3.72;;;;;;;13.01;63.29;100647.31;5135353;27;20125;-66
2022/06/22 03:03:44;;;;;;;8.85;3.92;;;;;;;12.99;63.44;100650.19;5135726;27;20450;-66
2022/06/22 03:06:14;;;;;;;9.90;4.22;;;;;;;12.98;63.47;100653.91;5135798;27;20050;-66
2022/06/22 03:08:40;;;;;;;9.23;3.60;;;;;;;13.03;63.02;100651.50;5134815;27;20169;-66
2022/06/22 03:11:08;;;;;;;11.38;4.32;;;;;;;13.04;62.90;100652.31;5134284;27;20078;-66
2022/06/22 03:13:41;;;;;;;12.68;3.92;;;;;;;13.09;62.36;100658.88;5134637;27;20055;-66
2022/06/22 03:16:24;;;;;;;8.57;3.80;;;;;;;12.99;62.69;100652.03;5134605;28;20109;-66
2022/06/22 03:18:52;;;;;;;9.70;4.05;;;;;;;13.00;63.01;100633.00;5134750;28;20055;-66
2022/06/22 03:21:19;;;;;;;10.10;4.10;;;;;;;13.05;63.07;100643.25;5134807;28;20078;-66
2022/06/22 03:23:57;;;;;;;6.43;3.58;;;;;;;13.08;62.92;100642.91;5134320;28;20090;-66
2022/06/22 03:26:29;;;;;;;9.05;3.67;;;;;;;13.18;62.94;100626.47;5134351;28;20147;-66
2022/06/22 03:29:10;;;;;;;8.57;3.20;;;;;;;13.21;62.74;100624.25;5134703;28;20051;-67
2022/06/22 03:31:51;;;;;;;8.90;3.40;;;;;;;13.26;62.63;100619.19;5134167;28;20134;-66
2022/06/22 03:34:21;;;;;;;6.28;2.92;;;;;;;13.40;62.11;100620.25;5135726;28;20077;-66
2022/06/22 03:36:58;;;;;;;11.32;3.33;;;;;;;13.46;62.17;100614.16;5135830;28;20055;-66
2022/06/22 03:39:28;;;;;;;8.45;3.55;;;;;;;13.59;61.05;100614.38;5136157;28;20055;-66
2022/06/22 03:42:03;;;;;;;11.00;3.47;;;;;;;13.55;61.00;100618.44;5135374;28;20133;-67
2022/06/22 03:44:35;;;;;;;13.68;3.90;;;;;;;13.58;60.73;100611.84;5135553;28;20055;-66
2022/06/22 03:47:22;;;;;;;10.63;3.80;;;;;;;13.69;60.41;100608.69;5135669;28;20116;-67
2022/06/22 03:49:57;;;;;;;9.77;3.50;;;;;;;13.73;60.35;100615.38;5135212;28;20066;-66
2022/06/22 03:52:44;;;;;;;12.18;3.17;;;;;;;13.71;60.44;100616.63;5135593;28;20166;-66
2022/06/22 03:55:16;;;;;;;8.18;3.10;;;;;;;13.70;60.49;100610.38;5134037;28;20086;-66
2022/06/22 03:57:47;;;;;;;7.10;3.15;;;;;;;13.72;60.56;100602.94;5134302;28;20067;-66
2022/06/22 04:00:15;;;;;;;11.95;3.22;;;;;;;13.74;60.03;100600.91;5116324;28;20107;-66
2022/06/22 04:02:42;;;;;;;8.20;3.58;;;;;;;13.72;60.13;100602.94;5134295;28;20406;-66
2022/06/22 04:05:18;;;;;;;11.18;3.40;;;;;;;13.73;60.61;100599.22;5134313;28;20153;-66
2022/06/22 04:07:46;;;;;;;12.18;3.88;;;;;;;13.79;60.14;100598.50;5134163;28;20062;-67
2022/06/22 04:10:47;;;;;;;11.10;3.85;;;;;;;13.88;59.94;100609.25;5134769;28;20107;-67
2022/06/22 04:13:20;;;;;;;7.75;4.00;;;;;;;13.87;60.16;100604.84;5118147;27;20097;-66
2022/06/22 04:15:55;;;;;;;6.35;3.50;;;;;;;13.86;60.35;100609.41;5138085;27;20078;-66
2022/06/22 04:18:28;;;;;;;7.53;3.25;;;;;;;13.91;59.65;100612.41;5138238;27;20171;-66
2022/06/22 04:21:05;;;;;;;10.45;3.50;;;;;;;13.93;59.00;100613.03;5138137;27;20039;-66
2022/06/22 04:23:33;;;;;;;13.45;3.40;;;;;;;13.88;59.04;100609.25;5138356;27;20515;-66
2022/06/22 04:26:19;;;;;;;8.35;3.90;;;;;;;13.95;59.21;100612.88;5137742;27;20087;-67
2022/06/22 04:28:49;;;;;;;10.05;4.00;;;;;;;14.00;59.51;100607.75;5138465;27;20126;-67
2022/06/22 04:31:22;;;;;;;9.23;3.72;;;;;;;14.00;59.50;100610.44;5138268;27;20081;-67
2022/06/22 04:33:58;;;;;;;9.27;3.15;;;;;;;14.05;59.44;100618.81;5138629;27;20051;-66
2022/06/22 04:36:50;;;;;;;12.63;4.07;;;;;;;14.03;59.45;100608.22;5138101;27;20399;-66
2022/06/22 04:39:31;;;;;;;11.38;4.07;;;;;;;14.06;59.38;100620.50;5137292;27;20409;-66
2022/06/22 04:42:00;;;;;;;9.38;4.20;;;;;;;14.00;59.27;100619.38;5139044;27;20075;-66
2022/06/22 04:44:34;;;;;;;11.75;4.63;;;;;;;14.08;59.10;100618.47;5139532;27;20145;-66
2022/06/22 04:47:12;;;;;;;13.65;4.35;;;;;;;14.09;59.28;100614.72;5139580;27;20051;-66
2022/06/22 04:49:52;;;;;;;10.10;4.47;;;;;;;14.10;59.58;100621.78;5139734;27;20206;-66
2022/06/22 04:52:24;;;;;;;12.98;5.03;;;;;;;14.10;59.59;100619.09;5139061;27;20074;-66
2022/06/22 04:54:56;;;;;;;25.65;9.50;;;;;;;14.11;59.66;100634.25;5139925;27;20446;-66
2022/06/22 04:57:28;;;;;;;14.52;5.30;;;;;;;14.18;59.40;100635.19;5138461;27;20089;-66
2022/06/22 04:59:55;;;;;;;10.90;4.22;;;;;;;14.24;59.28;100630.91;5139256;27;20142;-66
2022/06/22 05:02:31;;;;;;;11.95;4.95;;;;;;;14.26;59.27;100635.09;5138396;27;20100;-68
2022/06/22 05:05:07;;;;;;;15.13;4.68;;;;;;;14.32;59.07;100633.50;5138450;27;20047;-67
2022/06/22 05:07:45;;;;;;;11.45;5.20;;;;;;;14.38;58.67;100635.47;5137744;27;20050;-66
2022/06/22 05:10:23;;;;;;;15.10;5.30;;;;;;;14.42;58.63;100638.63;5137366;27;20075;-67
2022/06/22 05:13:04;;;;;;;12.27;5.65;;;;;;;14.48;57.88;100633.31;5137749;27;20058;-66
2022/06/22 05:15:36;;;;;;;13.55;4.93;;;;;;;14.63;56.50;100635.13;5137721;27;20082;-66
2022/06/22 05:18:08;;;;;;;15.63;5.35;;;;;;;14.63;57.45;100638.66;5137788;27;20079;-66
2022/06/22 05:20:39;;;;;;;13.77;4.88;;;;;;;14.63;57.98;100649.47;5137326;27;20079;-66
2022/06/22 05:23:07;;;;;;;16.23;5.93;;;;;;;14.73;57.60;100644.66;5138008;27;20082;-66
2022/06/22 05:25:35;;;;;;;11.82;4.75;;;;;;;14.77;57.15;100648.66;5137069;27;20055;-66
2022/06/22 05:28:07;;;;;;;11.77;4.75;;;;;;;14.85;56.32;100650.41;5138218;27;20082;-67
2022/06/22 05:30:48;;;;;;;10.55;4.05;;;;;;;14.86;55.29;100651.25;5137214;27;20079;-67
2022/06/22 05:33:19;;;;;;;8.52;3.67;;;;;;;14.98;55.11;100652.41;5136906;27;20047;-66
2022/06/22 05:35:55;;;;;;;9.35;4.50;;;;;;;14.99;55.20;100664.91;5137258;27;20142;-66
2022/06/22 05:38:22;;;;;;;11.65;3.60;;;;;;;15.09;54.93;100668.13;5136713;27;20079;-66
2022/06/22 05:40:50;;;;;;;8.48;3.85;;;;;;;15.15;54.52;100672.75;5137041;27;20047;-67
2022/06/22 05:43:17;;;;;;;13.43;4.28;;;;;;;15.25;54.54;100664.34;5136765;27;20134;-68
2022/06/22 05:45:49;;;;;;;28.30;5.97;;;;;;;15.25;53.70;100669.75;5136790;27;20079;-68
2022/06/22 05:48:21;;;;;;;21.35;3.47;;;;;;;15.31;53.54;100668.97;5138801;27;20043;-67
2022/06/22 05:50:58;;;;;;;9.32;3.10;;;;;;;15.44;53.24;100668.28;5136673;27;20141;-67
2022/06/22 05:53:29;;;;;;;13.75;3.53;;;;;;;15.54;52.86;100668.78;5136863;27;20505;-67
2022/06/22 05:56:14;;;;;;;13.90;2.67;;;;;;;15.60;53.20;100675.28;5136375;27;20051;-67
2022/06/22 05:58:55;;;;;;;14.00;3.20;;;;;;;15.64;53.36;100674.75;5136141;27;20040;-67
2022/06/22 06:01:44;;;;;;;17.02;4.05;;;;;;;15.72;53.37;100676.47;5136084;27;20047;-66
2022/06/22 06:04:20;;;;;;;12.07;3.63;;;;;;;15.76;53.38;100679.63;5135961;27;20046;-67
2022/06/22 06:06:48;;;;;;;12.32;3.00;;;;;;;15.86;53.52;100672.00;5136028;27;20047;-67
2022/06/22 06:09:23;;;;;;;11.43;3.63;;;;;;;15.94;52.92;100678.09;5136108;27;20133;-67
2022/06/22 06:12:13;;;;;;;12.00;3.65;;;;;;;16.10;52.15;100685.09;5136023;27;20538;-67
2022/06/22 06:14:49;;;;;;;8.10;2.97;;;;;;;16.22;51.36;100687.22;5119995;27;20050;-66
2022/06/22 06:17:28;;;;;;;8.60;3.03;;;;;;;16.27;51.39;100699.16;5135891;27;20466;-66
2022/06/22 06:19:57;;;;;;;7.68;2.50;;;;;;;16.37;51.03;100701.50;5136653;27;20057;-66
2022/06/22 06:22:25;;;;;;;9.40;2.67;;;;;;;16.50;50.43;100700.72;5135449;27;20043;-68
2022/06/22 06:27:49;;;;;;;7.97;2.33;;;;;;;16.69;49.42;100689.19;5135701;27;20402;-68
2022/06/22 06:30:23;;;;;;;7.60;2.70;;;;;;;16.81;48.07;100682.16;5136065;27;20138;-68
2022/06/22 06:32:53;;;;;;;10.50;2.55;;;;;;;16.83;47.32;100685.50;5135299;27;20047;-68
2022/06/22 06:35:33;;;;;;;12.13;2.72;;;;;;;17.02;46.66;100680.34;5134996;27;20452;-68
2022/06/22 06:38:24;;;;;;;9.82;2.03;;;;;;;17.15;46.17;100664.13;5135367;27;20082;-67
2022/06/22 06:40:57;;;;;;;10.43;2.63;;;;;;;17.34;45.48;100665.25;5135579;27;20513;-67
2022/06/22 06:43:38;;;;;;;6.45;2.05;;;;;;;17.47;42.11;100665.25;5135151;27;20072;-67
2022/06/22 06:46:10;;;;;;;;;;;;;;;17.56;40.14;100671.31;5136038;27;20050;-68
2022/06/22 06:48:39;;;;;;;12.10;1.80;;;;;;;17.73;40.21;100660.91;5135401;27;19926;-67
2022/06/22 06:51:06;;;;;;;6.18;2.13;;;;;;;17.94;43.01;100660.66;5135255;27;20142;-68
2022/06/22 06:53:46;;;;;;;4.65;1.40;;;;;;;18.20;38.73;100669.84;5135668;27;20054;-67
2022/06/22 06:56:19;;;;;;;9.45;1.42;;;;;;;18.40;40.94;100665.19;5135132;27;20078;-67
2022/06/22 06:58:48;;;;;;;7.03;1.90;;;;;;;18.15;42.45;100675.09;5134942;27;20054;-67
2022/06/22 07:01:24;;;;;;;6.15;1.77;;;;;;;18.46;41.52;100677.94;5135455;27;20086;-67
2022/06/22 07:03:58;;;;;;;10.32;1.80;;;;;;;18.58;41.11;100671.84;5135281;27;20497;-67
2022/06/22 07:06:26;;;;;;;9.00;1.55;;;;;;;19.31;36.43;100688.69;5135310;27;20502;-67
2022/06/22 07:09:26;;;;;;;5.10;1.45;;;;;;;19.53;38.24;100685.59;5136011;27;20096;-68
2022/06/22 07:12:03;;;;;;;6.63;1.67;;;;;;;19.34;39.37;100677.31;5116359;27;20388;-68
2022/06/22 07:14:37;;;;;;;8.68;1.55;;;;;;;19.38;37.63;100678.59;5135135;27;20145;-68
2022/06/22 07:17:11;;;;;;;10.95;1.80;;;;;;;20.05;35.45;100684.34;5134736;27;20130;-68
2022/06/22 07:19:51;;;;;;;3.80;0.90;;;;;;;20.28;34.93;100683.72;5135131;28;20043;-67
2022/06/22 07:22:35;;;;;;;5.45;1.55;;;;;;;20.51;33.41;100688.50;5117312;28;20443;-68
2022/06/22 07:25:29;;;;;;;9.05;1.40;;;;;;;21.12;33.91;100682.09;5134593;28;20093;-68
2022/06/22 07:28:03;;;;;;;8.90;1.70;;;;;;;21.38;34.86;100683.59;5136089;28;20083;-68
2022/06/22 07:30:47;;;;;;;6.72;1.45;;;;;;;21.87;32.72;100685.38;5134627;28;20134;-67
2022/06/22 07:33:38;;;;;;;3.25;1.30;;;;;;;21.99;31.09;100681.59;5134760;28;20055;-69
2022/06/22 07:36:23;;;;;;;6.18;1.63;;;;;;;22.39;30.54;100671.81;5135128;28;20086;-67
2022/06/22 07:38:55;;;;;;;5.35;1.42;;;;;;;21.99;33.91;100667.94;5134999;28;20201;-67
2022/06/22 07:41:23;;;;;;;3.88;1.48;;;;;;;21.11;34.79;100677.72;5134769;28;20471;-69
2022/06/22 07:43:54;;;;;;;4.75;1.50;;;;;;;21.20;34.38;100680.94;5134888;28;20047;-67
2022/06/22 07:46:28;;;;;;;5.03;1.75;;;;;;;21.36;34.47;100685.75;5135406;27;20134;-67
2022/06/22 07:49:05;;;;;;;6.35;1.38;;;;;;;21.26;33.26;100685.47;5137624;27;20053;-67
2022/06/22 07:51:35;;;;;;;8.13;1.48;;;;;;;21.78;33.49;100684.88;5139163;27;20126;-68
2022/06/22 07:54:09;;;;;;;10.75;1.88;;;;;;;21.55;33.93;100677.47;5139906;27;20432;-67
2022/06/22 07:57:01;;;;;;;8.30;2.45;;;;;;;22.40;31.77;100689.91;5138782;27;20121;-69
2022/06/22 08:00:07;;;;;;;5.28;1.25;;;;;;;22.33;32.40;100685.41;5138937;27;20352;-67
2022/06/22 08:02:58;;;;;;;4.28;1.42;;;;;;;22.14;31.88;100672.09;5118225;27;20117;-67
2022/06/22 08:05:29;;;;;;;;;;;;;;;23.03;28.39;100672.63;5139862;27;20455;-67
2022/06/22 08:08:22;;;;;;;6.78;1.67;;;;;;;23.66;27.57;100668.84;5138764;27;20282;-67
2022/06/22 08:11:16;;;;;;;3.20;1.10;;;;;;;23.00;29.57;100663.00;5138822;27;20055;-67
2022/06/22 08:13:56;;;;;;;6.75;1.60;;;;;;;23.12;30.65;100659.38;5138520;27;20141;-67
2022/06/22 08:16:31;;;;;;;8.52;1.58;;;;;;;23.27;29.67;100655.06;5138400;27;20509;-67
2022/06/22 08:19:01;;;;;;;5.78;1.48;;;;;;;22.48;31.90;100654.03;5139085;27;20143;-67
2022/06/22 08:21:28;;;;;;;5.68;1.60;;;;;;;22.32;31.94;100650.94;5139024;27;20059;-68
2022/06/22 08:23:56;;;;;;;5.65;1.40;;;;;;;22.14;32.68;100652.97;5138367;27;20131;-67
2022/06/22 08:26:27;;;;;;;8.00;1.67;;;;;;;22.12;31.96;100650.50;5137855;27;20155;-67
2022/06/22 08:28:54;;;;;;;3.85;1.50;;;;;;;22.55;31.21;100652.81;5138315;27;20079;-67
2022/06/22 08:31:21;;;;;;;5.47;1.42;;;;;;;22.98;30.13;100643.28;5137875;27;20058;-68
2022/06/22 08:34:03;;;;;;;4.70;1.33;;;;;;;23.09;30.32;100644.31;5138680;27;20043;-68
2022/06/22 08:36:38;;;;;;;4.95;1.60;;;;;;;22.08;32.04;100638.34;5137799;27;20093;-68
2022/06/22 08:39:22;;;;;;;4.45;1.20;;;;;;;22.43;31.21;100643.78;5138156;27;20493;-68
2022/06/22 08:42:09;;;;;;;7.95;1.50;;;;;;;22.48;30.00;100643.09;5137646;27;20061;-68
2022/06/22 08:44:50;;;;;;;5.72;1.35;;;;;;;22.70;30.07;100646.81;5137413;27;20069;-68
2022/06/22 08:47:30;;;;;;;4.93;1.30;;;;;;;22.66;29.34;100640.19;5137266;27;20152;-67
2022/06/22 08:50:34;;;;;;;5.00;1.40;;;;;;;22.83;29.41;100642.16;5138042;27;20082;-68
2022/06/22 08:53:01;;;;;;;2.80;1.33;;;;;;;22.63;29.51;100628.91;5137649;27;20047;-67
2022/06/22 08:56:13;;;;;;;3.72;1.10;;;;;;;22.90;29.15;100632.72;5137449;27;20138;-68
2022/06/22 08:59:10;;;;;;;4.85;1.38;;;;;;;23.76;26.98;100638.09;5137513;27;20133;-67
2022/06/22 09:01:55;;;;;;;4.10;1.40;;;;;;;23.29;28.53;100627.44;5138027;27;20086;-67
2022/06/22 09:04:59;;;;;;;7.35;1.50;;;;;;;22.84;29.34;100627.38;5137428;27;20510;-66
2022/06/22 09:07:52;;;;;;;4.68;1.70;;;;;;;22.67;29.02;100630.06;5137125;27;20078;-67
2022/06/22 09:10:21;;;;;;;3.00;1.20;;;;;;;22.84;27.89;100635.59;5138035;27;20081;-67
2022/06/22 09:12:59;;;;;;;5.47;1.20;;;;;;;22.50;28.21;100638.22;5137070;27;20135;-67
2022/06/22 09:15:42;;;;;;;4.05;1.15;;;;;;;22.29;29.13;100639.63;5136681;27;20058;-67
2022/06/22 09:18:11;;;;;;;5.88;1.20;;;;;;;23.48;27.21;100641.72;5137098;27;20120;-67
2022/06/22 09:20:54;;;;;;;4.10;1.17;;;;;;;25.20;23.06;100646.25;5137019;27;20137;-67
2022/06/22 09:23:29;;;;;;;9.57;1.45;;;;;;;24.05;24.93;100643.44;5136459;27;20082;-67
2022/06/22 09:26:07;;;;;;;6.22;1.30;;;;;;;25.04;23.54;100653.53;5136771;27;20054;-67
2022/06/22 09:28:45;;;;;;;3.95;1.15;;;;;;;26.66;21.27;100646.75;5136666;27;20100;-67
2022/06/22 09:31:30;;;;;;;5.88;1.73;;;;;;;27.13;20.73;100643.88;5136823;27;20047;-67
2022/06/22 09:34:06;;;;;;;4.18;1.40;;;;;;;26.24;22.68;100642.16;5136775;27;20120;-67
2022/06/22 09:36:51;;;;;;;4.57;1.48;;;;;;;25.17;25.27;100646.81;5136429;27;20543;-68
2022/06/22 09:39:36;;;;;;;3.28;1.05;;;;;;;24.36;25.84;100644.69;5136787;27;20051;-67
2022/06/22 09:42:35;;;;;;;3.75;1.33;;;;;;;24.61;25.88;100634.09;5136395;27;20040;-67
2022/06/22 09:45:08;;;;;;;3.80;1.05;;;;;;;26.11;21.90;100631.63;5136286;27;20047;-66
2022/06/22 09:47:38;;;;;;;10.13;1.30;;;;;;;26.98;21.96;100632.84;5136356;27;20050;-67
2022/06/22 09:50:41;;;;;;;6.63;1.48;;;;;;;26.35;22.97;100630.13;5136030;27;20050;-67
2022/06/22 09:53:08;;;;;;;2.50;1.10;;;;;;;25.58;24.02;100632.34;5136167;27;20043;-68
2022/06/22 09:58:42;;;;;;;4.60;1.20;;;;;;;25.21;25.30;100639.69;5136873;27;20491;-67
2022/06/22 10:01:16;;;;;;;4.35;1.33;;;;;;;25.11;25.56;100640.44;5136291;27;20142;-67
2022/06/22 10:04:01;;;;;;;4.85;1.15;;;;;;;24.23;26.38;100645.06;5135997;27;20491;-66
2022/06/22 10:06:46;;;;;;;3.03;0.93;;;;;;;23.98;26.50;100640.88;5136057;27;20162;-66
2022/06/22 10:09:27;;;;;;;4.43;1.38;;;;;;;23.72;26.81;100635.00;5136474;27;20141;-68
2022/06/22 10:12:23;;;;;;;3.83;0.90;;;;;;;24.90;25.24;100637.44;5135684;27;20112;-67
2022/06/22 10:15:04;;;;;;;4.57;1.20;;;;;;;25.20;25.13;100646.25;5135671;27;20051;-67
2022/06/22 10:18:03;;;;;;;3.05;1.10;;;;;;;24.64;25.96;100632.75;5136191;27;20083;-67
2022/06/22 10:20:41;;;;;;;3.00;1.15;;;;;;;24.55;26.06;100643.34;5135918;27;20053;-67
2022/06/22 10:23:37;;;;;;;3.38;1.38;;;;;;;23.65;27.30;100639.00;5135960;27;20046;-67
2022/06/22 10:26:12;;;;;;;5.13;1.30;;;;;;;25.07;24.96;100637.38;5092393;27;20082;-67
2022/06/22 10:28:42;;;;;;;7.13;1.15;;;;;;;23.78;26.93;100643.31;5135989;27;20079;-67
2022/06/22 10:31:33;;;;;;;6.95;1.27;;;;;;;24.49;25.63;100649.84;5135975;27;20093;-67
2022/06/22 10:34:14;;;;;;;5.90;1.50;;;;;;;24.01;26.37;100645.03;5135578;27;20100;-67
2022/06/22 10:37:09;;;;;;;2.00;1.00;;;;;;;23.63;27.00;100641.97;5135754;27;20047;-67
2022/06/22 10:39:55;;;;;;;7.95;1.50;;;;;;;24.96;25.21;100641.06;5135519;27;20054;-67
2022/06/22 10:45:48;;;;;;;5.32;1.10;;;;;;;25.82;21.93;100635.56;5119343;27;20096;-67
2022/06/22 10:48:21;;;;;;;3.60;1.20;;;;;;;24.30;26.09;100637.47;5135747;27;20123;-67
2022/06/22 10:51:06;;;;;;;4.38;1.05;;;;;;;23.53;26.97;100630.84;5135645;27;20046;-67
2022/06/22 10:54:10;;;;;;;2.40;0.90;;;;;;;23.08;27.60;100631.66;5135479;27;20050;-66
2022/06/22 10:57:05;;;;;;;5.22;1.10;;;;;;;24.11;24.33;100640.53;5135309;27;20456;-68
2022/06/22 10:59:55;;;;;;;3.38;1.33;;;;;;;22.76;27.73;100628.63;5135508;27;20051;-67
2022/06/22 11:02:56;;;;;;;9.52;1.10;;;;;;;22.70;27.60;100641.34;5135552;27;20092;-66
2022/06/22 11:05:38;;;;;;;3.50;0.98;;;;;;;22.84;27.25;100632.84;5135493;27;20047;-67
2022/06/22 11:08:41;;;;;;;4.05;1.27;;;;;;;23.20;26.99;100629.75;5135257;27;20055;-67
2022/06/22 11:11:44;;;;;;;1.52;0.98;;;;;;;22.55;27.88;100641.03;5135784;27;20089;-67
2022/06/22 11:14:20;;;;;;;2.80;1.48;;;;;;;23.48;24.96;100639.81;5135189;27;20083;-68
2022/06/22 11:17:05;;;;;;;1.85;0.80;;;;;;;22.67;27.87;100639.13;5135257;27;20524;-68
2022/06/22 11:19:59;;;;;;;3.42;0.90;;;;;;;22.43;28.32;100629.25;5135276;28;20050;-68
2022/06/22 11:22:32;;;;;;;2.35;0.82;;;;;;;22.48;28.07;100632.16;5138379;27;20054;-68
2022/06/22 11:25:02;;;;;;;4.93;1.27;;;;;;;22.88;27.63;100631.28;5141509;27;20466;-67
2022/06/22 11:30:49;;;;;;;;;;;;;;;22.48;27.83;100637.63;5142001;27;20089;-68
2022/06/22 11:33:23;;;;;;;3.60;1.23;;;;;;;22.64;27.58;100641.50;5141804;27;20019;-67
2022/06/22 11:36:08;;;;;;;6.00;1.10;;;;;;;23.01;26.74;100644.69;5141755;27;20142;-68
2022/06/22 11:38:56;;;;;;;9.85;1.15;;;;;;;23.25;24.99;100629.81;5142489;27;20050;-68
2022/06/22 11:41:41;;;;;;;2.40;1.15;;;;;;;22.58;26.79;100623.34;5141077;27;20054;-67
2022/06/22 11:44:20;;;;;;;4.88;1.27;;;;;;;22.69;25.93;100620.56;5141513;27;20090;-67
2022/06/22 11:46:50;;;;;;;3.50;1.20;;;;;;;22.07;28.04;100617.56;5141191;27;20051;-67
2022/06/22 11:49:55;;;;;;;5.37;1.10;;;;;;;21.37;29.65;100621.91;5141650;27;20083;-67
2022/06/22 11:52:45;;;;;;;7.68;1.30;;;;;;;21.25;29.86;100618.34;5140977;27;20091;-67
2022/06/22 11:55:25;;;;;;;7.00;1.30;;;;;;;21.30;29.54;100604.81;5141277;27;20069;-67
2022/06/22 11:58:00;;;;;;;2.92;0.90;;;;;;;21.38;28.58;100601.72;5142308;27;20081;-67
2022/06/22 12:00:38;;;;;;;2.67;1.10;;;;;;;21.75;26.88;100601.53;5141405;27;20074;-68
2022/06/22 12:03:11;;;;;;;5.68;1.30;;;;;;;21.55;29.59;100607.34;5142165;27;20467;-68
2022/06/22 12:06:05;;;;;;;5.43;1.10;;;;;;;20.72;30.43;100610.03;5142155;27;20138;-68
2022/06/22 12:09:00;;;;;;;5.55;1.38;;;;;;;20.88;29.62;100612.97;5141520;27;20138;-67
2022/06/22 12:11:32;;;;;;;6.78;1.08;;;;;;;21.64;28.36;100610.56;5141382;27;20070;-68
2022/06/22 12:17:22;;;;;;;2.67;1.00;;;;;;;21.32;28.44;100604.56;5141533;27;20050;-68
2022/06/22 12:20:20;;;;;;;2.25;0.80;;;;;;;21.01;30.28;100605.63;5141331;27;20058;-68
2022/06/22 12:23:11;;;;;;;2.75;1.25;;;;;;;21.16;29.36;100597.06;5141302;27;20058;-67
2022/06/22 12:26:08;;;;;;;9.98;1.40;;;;;;;21.28;28.58;100593.28;5140993;27;20055;-67
2022/06/22 12:28:48;;;;;;;6.40;2.08;;;;;;;21.75;26.21;100596.06;5141252;27;20479;-66
2022/06/22 12:31:18;;;;;;;3.10;1.00;;;;;;;21.18;29.66;100590.31;5140888;27;20082;-67
2022/06/22 12:33:55;;;;;;;3.25;1.15;;;;;;;21.34;28.60;100597.81;5139657;27;20046;-67
2022/06/22 12:36:31;;;;;;;5.65;1.17;;;;;;;21.91;27.29;100591.84;5138021;27;20403;-67
2022/06/22 12:39:06;;;;;;;3.78;1.00;;;;;;;22.26;26.93;100591.78;5137899;27;20141;-67